sensor_id;sensor_type;location;lat;lon;timestamp;temperature;humidity
22996;DHT22;11664;49.774;8.650;2022-09-27T00:02:21;10.60;99.90
22996;DHT22;11664;49.774;8.650;2022-09-27T00:04:46;10.60;99.90
22996;DHT22;11664;49.774;8.650;2022-09-27T00:07:12;10.60;99.90
22996;DHT22;11664;49.774;8.650;2022-09-27T00:19:22;10.70;99.90
22996;DHT22;11664;49.774;8.650;2022-09-27T00:21:49;10.60;99.90
22996;DHT22;11664;49.774;8.650;2022-09-27T00:24:18;10.60;99.90
22996;DHT22;11664;49.774;8.650;2022-09-27T00:26:44;10.70;99.90
22996;DHT22;11664;49.774;8.650;2022-09-27T00:29:12;10.70;99.90
22996;DHT22;11664;49.774;8.650;2022-09-27T00:31:38;10.60;99.90
22996;DHT22;11664;49.774;8.650;2022-09-27T00:34:05;10.70;99.90
22996;DHT22;11664;49.774;8.650;2022-09-27T00:36:32;10.60;99.90
22996;DHT22;11664;49.774;8.650;2022-09-27T00:41:32;10.60;99.90
22996;DHT22;11664;49.774;8.650;2022-09-27T00:44:01;10.60;99.90
22996;DHT22;11664;49.774;8.650;2022-09-27T00:46:39;10.60;99.90
22996;DHT22;11664;49.774;8.650;2022-09-27T00:49:20;10.60;99.90
22996;DHT22;11664;49.774;8.650;2022-09-27T00:51:51;10.60;99.90
22996;DHT22;11664;49.774;8.650;2022-09-27T00:54:19;10.60;99.90
22996;DHT22;11664;49.774;8.650;2022-09-27T00:56:45;10.60;99.90
22996;DHT22;11664;49.774;8.650;2022-09-27T01:01:40;10.60;99.90
22996;DHT22;11664;49.774;8.650;2022-09-27T01:04:09;10.60;99.90
22996;DHT22;11664;49.774;8.650;2022-09-27T01:06:36;10.60;99.90
22996;DHT22;11664;49.774;8.650;2022-09-27T01:28:21;10.60;99.90
22996;DHT22;11664;49.774;8.650;2022-09-27T01:38:44;10.60;99.90
22996;DHT22;11664;49.774;8.650;2022-09-27T01:41:22;10.60;99.90
22996;DHT22;11664;49.774;8.650;2022-09-27T01:44:14;10.60;99.90
22996;DHT22;11664;49.774;8.650;2022-09-27T01:46:46;10.60;99.90
22996;DHT22;11664;49.774;8.650;2022-09-27T01:49:27;10.60;99.90
22996;DHT22;11664;49.774;8.650;2022-09-27T01:54:29;10.60;99.90
22996;DHT22;11664;49.774;8.650;2022-09-27T01:56:57;10.60;99.90
22996;DHT22;11664;49.774;8.650;2022-09-27T01:59:44;10.60;99.90
22996;DHT22;11664;49.774;8.650;2022-09-27T02:07:17;10.60;99.90
22996;DHT22;11664;49.774;8.650;2022-09-27T02:09:52;10.60;99.90
22996;DHT22;11664;49.774;8.650;2022-09-27T02:12:27;10.60;99.90
22996;DHT22;11664;49.774;8.650;2022-09-27T02:22:35;10.60;99.90
22996;DHT22;11664;49.774;8.650;2022-09-27T02:25:25;10.60;99.90
22996;DHT22;11664;49.774;8.650;2022-09-27T02:33:01;10.60;99.90
22996;DHT22;11664;49.774;8.650;2022-09-27T02:37:55;10.60;99.90
22996;DHT22;11664;49.774;8.650;2022-09-27T02:42:49;10.60;99.90
22996;DHT22;11664;49.774;8.650;2022-09-27T02:45:16;10.60;99.90
22996;DHT22;11664;49.774;8.650;2022-09-27T02:48:11;10.60;99.90
22996;DHT22;11664;49.774;8.650;2022-09-27T02:53:21;10.60;99.90
22996;DHT22;11664;49.774;8.650;2022-09-27T03:01:35;10.60;99.90
22996;DHT22;11664;49.774;8.650;2022-09-27T03:14:20;10.60;99.90
22996;DHT22;11664;49.774;8.650;2022-09-27T03:28:56;10.50;99.90
22996;DHT22;11664;49.774;8.650;2022-09-27T03:31:22;10.50;99.90
22996;DHT22;11664;49.774;8.650;2022-09-27T03:36:13;10.50;99.90
22996;DHT22;11664;49.774;8.650;2022-09-27T03:38:38;10.50;99.90
22996;DHT22;11664;49.774;8.650;2022-09-27T03:41:04;10.50;99.90
22996;DHT22;11664;49.774;8.650;2022-09-27T03:43:30;10.50;99.90
22996;DHT22;11664;49.774;8.650;2022-09-27T03:48:22;10.60;99.90
22996;DHT22;11664;49.774;8.650;2022-09-27T03:50:49;10.40;99.90
22996;DHT22;11664;49.774;8.650;2022-09-27T03:53:15;10.50;99.90
22996;DHT22;11664;49.774;8.650;2022-09-27T03:55:40;10.40;99.90
22996;DHT22;11664;49.774;8.650;2022-09-27T03:58:06;10.40;99.90
22996;DHT22;11664;49.774;8.650;2022-09-27T04:00:31;10.40;99.90
22996;DHT22;11664;49.774;8.650;2022-09-27T04:02:57;10.30;99.90
22996;DHT22;11664;49.774;8.650;2022-09-27T04:05:25;10.40;99.90
22996;DHT22;11664;49.774;8.650;2022-09-27T04:07:51;10.30;99.90
22996;DHT22;11664;49.774;8.650;2022-09-27T04:10:17;10.30;99.90
22996;DHT22;11664;49.774;8.650;2022-09-27T04:15:09;10.30;99.90
22996;DHT22;11664;49.774;8.650;2022-09-27T04:17:35;10.20;99.90
22996;DHT22;11664;49.774;8.650;2022-09-27T04:20:01;10.20;99.90
22996;DHT22;11664;49.774;8.650;2022-09-27T04:22:29;10.20;99.90
22996;DHT22;11664;49.774;8.650;2022-09-27T04:24:54;10.20;99.90
22996;DHT22;11664;49.774;8.650;2022-09-27T04:27:20;10.10;99.90
22996;DHT22;11664;49.774;8.650;2022-09-27T04:29:47;10.10;99.90
22996;DHT22;11664;49.774;8.650;2022-09-27T04:32:13;10.10;99.90
22996;DHT22;11664;49.774;8.650;2022-09-27T04:34:39;10.10;99.90
22996;DHT22;11664;49.774;8.650;2022-09-27T04:37:23;10.10;99.90
22996;DHT22;11664;49.774;8.650;2022-09-27T04:42:15;10.10;99.90
22996;DHT22;11664;49.774;8.650;2022-09-27T04:44:43;10.10;99.90
22996;DHT22;11664;49.774;8.650;2022-09-27T04:47:09;10.10;99.90
22996;DHT22;11664;49.774;8.650;2022-09-27T04:49:34;10.10;99.90
22996;DHT22;11664;49.774;8.650;2022-09-27T04:52:00;10.10;99.90
22996;DHT22;11664;49.774;8.650;2022-09-27T04:56:52;10.10;99.90
22996;DHT22;11664;49.774;8.650;2022-09-27T04:59:17;10.10;99.90
22996;DHT22;11664;49.774;8.650;2022-09-27T05:01:43;10.10;99.90
22996;DHT22;11664;49.774;8.650;2022-09-27T05:04:09;10.10;99.90
22996;DHT22;11664;49.774;8.650;2022-09-27T05:06:35;10.10;99.90
22996;DHT22;11664;49.774;8.650;2022-09-27T05:09:00;10.00;99.90
22996;DHT22;11664;49.774;8.650;2022-09-27T05:11:26;10.10;99.90
22996;DHT22;11664;49.774;8.650;2022-09-27T05:13:51;10.10;99.90
22996;DHT22;11664;49.774;8.650;2022-09-27T05:16:17;10.00;99.90
22996;DHT22;11664;49.774;8.650;2022-09-27T05:18:44;10.00;99.90
22996;DHT22;11664;49.774;8.650;2022-09-27T05:21:09;10.00;99.90
22996;DHT22;11664;49.774;8.650;2022-09-27T05:23:35;10.00;99.90
22996;DHT22;11664;49.774;8.650;2022-09-27T05:26:06;10.00;99.90
22996;DHT22;11664;49.774;8.650;2022-09-27T05:28:32;10.00;99.90
22996;DHT22;11664;49.774;8.650;2022-09-27T05:31:02;10.00;99.90
22996;DHT22;11664;49.774;8.650;2022-09-27T05:33:27;10.00;99.90
22996;DHT22;11664;49.774;8.650;2022-09-27T05:35:54;10.00;99.90
22996;DHT22;11664;49.774;8.650;2022-09-27T05:38:20;10.00;99.90
22996;DHT22;11664;49.774;8.650;2022-09-27T05:40:46;10.00;99.90
22996;DHT22;11664;49.774;8.650;2022-09-27T05:43:14;10.00;99.90
22996;DHT22;11664;49.774;8.650;2022-09-27T05:45:40;10.00;99.90
22996;DHT22;11664;49.774;8.650;2022-09-27T05:48:06;10.00;99.90
22996;DHT22;11664;49.774;8.650;2022-09-27T05:50:31;10.00;99.90
22996;DHT22;11664;49.774;8.650;2022-09-27T05:52:57;10.00;99.90
22996;DHT22;11664;49.774;8.650;2022-09-27T05:55:22;10.00;99.90
22996;DHT22;11664;49.774;8.650;2022-09-27T05:58:02;10.00;99.90
22996;DHT22;11664;49.774;8.650;2022-09-27T06:00:29;10.00;99.90
22996;DHT22;11664;49.774;8.650;2022-09-27T06:02:57;10.10;99.90
22996;DHT22;11664;49.774;8.650;2022-09-27T06:05:24;10.10;99.90
22996;DHT22;11664;49.774;8.650;2022-09-27T06:07:51;10.10;99.90
22996;DHT22;11664;49.774;8.650;2022-09-27T06:10:18;10.10;99.90
22996;DHT22;11664;49.774;8.650;2022-09-27T06:12:44;10.10;99.90
22996;DHT22;11664;49.774;8.650;2022-09-27T06:15:10;10.10;99.90
22996;DHT22;11664;49.774;8.650;2022-09-27T06:17:35;10.10;99.90
22996;DHT22;11664;49.774;8.650;2022-09-27T06:20:02;10.20;99.90
22996;DHT22;11664;49.774;8.650;2022-09-27T06:22:28;10.20;99.90
22996;DHT22;11664;49.774;8.650;2022-09-27T06:24:54;10.20;99.90
22996;DHT22;11664;49.774;8.650;2022-09-27T06:27:20;10.30;99.90
22996;DHT22;11664;49.774;8.650;2022-09-27T06:29:45;10.30;99.90
22996;DHT22;11664;49.774;8.650;2022-09-27T06:32:11;10.30;99.90
22996;DHT22;11664;49.774;8.650;2022-09-27T06:34:37;10.40;99.90
22996;DHT22;11664;49.774;8.650;2022-09-27T06:37:02;10.30;99.90
22996;DHT22;11664;49.774;8.650;2022-09-27T06:39:28;10.40;99.90
22996;DHT22;11664;49.774;8.650;2022-09-27T06:41:54;10.40;99.90
22996;DHT22;11664;49.774;8.650;2022-09-27T06:44:22;10.40;99.90
22996;DHT22;11664;49.774;8.650;2022-09-27T06:46:49;10.40;99.90
22996;DHT22;11664;49.774;8.650;2022-09-27T06:49:15;10.40;99.90
22996;DHT22;11664;49.774;8.650;2022-09-27T06:51:40;10.40;99.90
22996;DHT22;11664;49.774;8.650;2022-09-27T06:54:06;10.40;99.90
22996;DHT22;11664;49.774;8.650;2022-09-27T06:56:32;10.40;99.90
22996;DHT22;11664;49.774;8.650;2022-09-27T06:58:57;10.40;99.90
22996;DHT22;11664;49.774;8.650;2022-09-27T07:01:45;10.50;99.90
22996;DHT22;11664;49.774;8.650;2022-09-27T07:04:11;10.50;99.90
22996;DHT22;11664;49.774;8.650;2022-09-27T07:06:37;10.60;99.90
22996;DHT22;11664;49.774;8.650;2022-09-27T07:11:33;10.60;99.90
22996;DHT22;11664;49.774;8.650;2022-09-27T07:14:01;10.70;99.90
22996;DHT22;11664;49.774;8.650;2022-09-27T07:16:29;10.70;99.90
22996;DHT22;11664;49.774;8.650;2022-09-27T07:18:56;10.70;99.90
22996;DHT22;11664;49.774;8.650;2022-09-27T07:21:22;10.60;99.90
22996;DHT22;11664;49.774;8.650;2022-09-27T07:23:48;10.70;99.90
22996;DHT22;11664;49.774;8.650;2022-09-27T07:26:14;10.70;99.90
22996;DHT22;11664;49.774;8.650;2022-09-27T07:28:40;10.60;99.90
22996;DHT22;11664;49.774;8.650;2022-09-27T07:31:06;10.50;99.90
22996;DHT22;11664;49.774;8.650;2022-09-27T07:33:32;10.50;99.90
22996;DHT22;11664;49.774;8.650;2022-09-27T07:35:59;10.40;99.90
22996;DHT22;11664;49.774;8.650;2022-09-27T07:38:24;10.40;99.90
22996;DHT22;11664;49.774;8.650;2022-09-27T07:40:50;10.40;99.90
22996;DHT22;11664;49.774;8.650;2022-09-27T07:43:16;10.30;99.90
22996;DHT22;11664;49.774;8.650;2022-09-27T07:45:42;10.20;99.90
22996;DHT22;11664;49.774;8.650;2022-09-27T07:48:09;10.20;99.90
22996;DHT22;11664;49.774;8.650;2022-09-27T07:50:36;10.20;99.90
22996;DHT22;11664;49.774;8.650;2022-09-27T15:42:19;10.60;99.90
22996;DHT22;11664;49.774;8.650;2022-09-27T19:29:00;9.60;99.90
22996;DHT22;11664;49.774;8.650;2022-09-27T19:31:26;9.50;99.90
22996;DHT22;11664;49.774;8.650;2022-09-27T19:33:53;9.50;99.90
22996;DHT22;11664;49.774;8.650;2022-09-27T19:36:20;9.50;99.90
22996;DHT22;11664;49.774;8.650;2022-09-27T19:38:46;9.40;99.90
22996;DHT22;11664;49.774;8.650;2022-09-27T19:41:14;9.40;99.90
22996;DHT22;11664;49.774;8.650;2022-09-27T19:43:40;9.40;99.90
22996;DHT22;11664;49.774;8.650;2022-09-27T19:46:11;9.30;99.90
22996;DHT22;11664;49.774;8.650;2022-09-27T19:48:39;9.20;99.90
22996;DHT22;11664;49.774;8.650;2022-09-27T19:51:05;9.20;99.90
22996;DHT22;11664;49.774;8.650;2022-09-27T19:53:33;9.20;99.90
22996;DHT22;11664;49.774;8.650;2022-09-27T19:55:59;9.20;99.90
22996;DHT22;11664;49.774;8.650;2022-09-27T19:58:26;9.20;99.90
22996;DHT22;11664;49.774;8.650;2022-09-27T20:01:00;9.20;99.90
22996;DHT22;11664;49.774;8.650;2022-09-27T20:03:27;9.30;99.90
22996;DHT22;11664;49.774;8.650;2022-09-27T20:05:56;9.30;99.90
22996;DHT22;11664;49.774;8.650;2022-09-27T20:08:23;9.30;99.90
22996;DHT22;11664;49.774;8.650;2022-09-27T20:10:56;9.40;99.90
22996;DHT22;11664;49.774;8.650;2022-09-27T20:13:22;9.40;99.90
22996;DHT22;11664;49.774;8.650;2022-09-27T20:15:48;9.40;99.90
22996;DHT22;11664;49.774;8.650;2022-09-27T20:18:14;9.30;99.90
22996;DHT22;11664;49.774;8.650;2022-09-27T20:20:40;9.30;99.90
22996;DHT22;11664;49.774;8.650;2022-09-27T20:23:08;9.30;99.90
22996;DHT22;11664;49.774;8.650;2022-09-27T20:25:33;9.20;99.90
22996;DHT22;11664;49.774;8.650;2022-09-27T20:28:01;9.10;99.90
22996;DHT22;11664;49.774;8.650;2022-09-27T20:30:27;9.10;99.90
22996;DHT22;11664;49.774;8.650;2022-09-27T20:32:52;9.10;99.90
22996;DHT22;11664;49.774;8.650;2022-09-27T20:35:36;9.20;99.90
22996;DHT22;11664;49.774;8.650;2022-09-27T20:38:03;9.30;99.90
22996;DHT22;11664;49.774;8.650;2022-09-27T20:40:28;9.30;99.90
22996;DHT22;11664;49.774;8.650;2022-09-27T20:42:54;9.30;99.90
22996;DHT22;11664;49.774;8.650;2022-09-27T20:45:19;9.20;99.90
22996;DHT22;11664;49.774;8.650;2022-09-27T20:47:45;9.20;99.90
22996;DHT22;11664;49.774;8.650;2022-09-27T20:50:10;9.10;99.90
22996;DHT22;11664;49.774;8.650;2022-09-27T20:52:36;9.10;99.90
22996;DHT22;11664;49.774;8.650;2022-09-27T20:55:02;9.10;99.90
22996;DHT22;11664;49.774;8.650;2022-09-27T20:57:27;9.10;99.90
22996;DHT22;11664;49.774;8.650;2022-09-27T20:59:53;9.20;99.90
22996;DHT22;11664;49.774;8.650;2022-09-27T21:02:19;9.20;99.90
22996;DHT22;11664;49.774;8.650;2022-09-27T21:04:44;9.20;99.90
22996;DHT22;11664;49.774;8.650;2022-09-27T21:07:10;9.20;99.90
22996;DHT22;11664;49.774;8.650;2022-09-27T21:09:35;9.30;99.90
22996;DHT22;11664;49.774;8.650;2022-09-27T21:12:03;9.30;99.90
22996;DHT22;11664;49.774;8.650;2022-09-27T21:14:28;9.40;99.90
22996;DHT22;11664;49.774;8.650;2022-09-27T21:16:54;9.30;99.90
22996;DHT22;11664;49.774;8.650;2022-09-27T21:19:19;9.40;99.90
22996;DHT22;11664;49.774;8.650;2022-09-27T21:21:45;9.40;99.90
22996;DHT22;11664;49.774;8.650;2022-09-27T21:24:11;9.40;99.90
22996;DHT22;11664;49.774;8.650;2022-09-27T21:26:36;9.50;99.90
22996;DHT22;11664;49.774;8.650;2022-09-27T21:29:06;9.50;99.90
22996;DHT22;11664;49.774;8.650;2022-09-27T21:31:33;9.60;99.90
22996;DHT22;11664;49.774;8.650;2022-09-27T21:34:02;9.60;99.90
22996;DHT22;11664;49.774;8.650;2022-09-27T21:36:34;9.60;99.90
22996;DHT22;11664;49.774;8.650;2022-09-27T21:39:00;9.60;99.90
22996;DHT22;11664;49.774;8.650;2022-09-27T21:41:26;9.60;99.90
22996;DHT22;11664;49.774;8.650;2022-09-27T21:43:52;9.60;99.90
22996;DHT22;11664;49.774;8.650;2022-09-27T21:46:26;9.60;99.90
22996;DHT22;11664;49.774;8.650;2022-09-27T21:48:54;9.60;99.90
22996;DHT22;11664;49.774;8.650;2022-09-27T21:51:25;9.50;99.90
22996;DHT22;11664;49.774;8.650;2022-09-27T21:53:56;9.50;99.90
22996;DHT22;11664;49.774;8.650;2022-09-27T21:56:25;9.60;99.90
22996;DHT22;11664;49.774;8.650;2022-09-27T21:58:50;9.50;99.90
22996;DHT22;11664;49.774;8.650;2022-09-27T22:01:21;9.50;99.90
22996;DHT22;11664;49.774;8.650;2022-09-27T22:03:49;9.50;99.90
22996;DHT22;11664;49.774;8.650;2022-09-27T22:06:18;9.50;99.90
22996;DHT22;11664;49.774;8.650;2022-09-27T22:08:45;9.50;99.90
22996;DHT22;11664;49.774;8.650;2022-09-27T22:11:15;9.50;99.90
22996;DHT22;11664;49.774;8.650;2022-09-27T22:13:41;9.50;99.90
22996;DHT22;11664;49.774;8.650;2022-09-27T22:16:11;9.50;99.90
22996;DHT22;11664;49.774;8.650;2022-09-27T22:18:37;9.50;99.90
22996;DHT22;11664;49.774;8.650;2022-09-27T22:21:05;9.50;99.90
22996;DHT22;11664;49.774;8.650;2022-09-27T22:23:31;9.60;99.90
22996;DHT22;11664;49.774;8.650;2022-09-27T22:25:58;9.60;99.90
22996;DHT22;11664;49.774;8.650;2022-09-27T22:28:24;9.60;99.90
22996;DHT22;11664;49.774;8.650;2022-09-27T22:30:51;9.60;99.90
22996;DHT22;11664;49.774;8.650;2022-09-27T22:33:17;9.60;99.90
22996;DHT22;11664;49.774;8.650;2022-09-27T22:35:47;9.60;99.90
22996;DHT22;11664;49.774;8.650;2022-09-27T22:38:14;9.60;99.90
22996;DHT22;11664;49.774;8.650;2022-09-27T22:40:40;9.60;99.90
22996;DHT22;11664;49.774;8.650;2022-09-27T22:43:05;9.60;99.90
22996;DHT22;11664;49.774;8.650;2022-09-27T22:45:31;9.70;99.90
22996;DHT22;11664;49.774;8.650;2022-09-27T22:47:57;9.70;99.90
22996;DHT22;11664;49.774;8.650;2022-09-27T22:50:22;9.70;99.90
22996;DHT22;11664;49.774;8.650;2022-09-27T22:52:48;9.70;99.90
22996;DHT22;11664;49.774;8.650;2022-09-27T22:55:13;9.70;99.90
22996;DHT22;11664;49.774;8.650;2022-09-27T22:57:39;9.70;99.90
22996;DHT22;11664;49.774;8.650;2022-09-27T23:00:05;9.70;99.90
22996;DHT22;11664;49.774;8.650;2022-09-27T23:02:31;9.70;99.90
22996;DHT22;11664;49.774;8.650;2022-09-27T23:04:57;9.70;99.90
22996;DHT22;11664;49.774;8.650;2022-09-27T23:07:22;9.70;99.90
22996;DHT22;11664;49.774;8.650;2022-09-27T23:09:48;9.70;99.90
22996;DHT22;11664;49.774;8.650;2022-09-27T23:12:13;9.70;99.90
22996;DHT22;11664;49.774;8.650;2022-09-27T23:14:39;9.70;99.90
22996;DHT22;11664;49.774;8.650;2022-09-27T23:17:05;9.70;99.90
22996;DHT22;11664;49.774;8.650;2022-09-27T23:19:30;9.70;99.90
22996;DHT22;11664;49.774;8.650;2022-09-27T23:22:00;9.60;99.90
22996;DHT22;11664;49.774;8.650;2022-09-27T23:29:36;9.60;99.90
22996;DHT22;11664;49.774;8.650;2022-09-27T23:32:03;9.60;99.90
22996;DHT22;11664;49.774;8.650;2022-09-27T23:34:30;9.60;99.90
22996;DHT22;11664;49.774;8.650;2022-09-27T23:36:55;9.60;99.90
22996;DHT22;11664;49.774;8.650;2022-09-27T23:39:21;9.50;99.90
22996;DHT22;11664;49.774;8.650;2022-09-27T23:41:46;9.60;99.90
22996;DHT22;11664;49.774;8.650;2022-09-27T23:44:12;9.50;99.90
22996;DHT22;11664;49.774;8.650;2022-09-27T23:46:40;9.50;99.90
22996;DHT22;11664;49.774;8.650;2022-09-27T23:49:06;9.50;99.90
22996;DHT22;11664;49.774;8.650;2022-09-27T23:51:31;9.50;99.90
22996;DHT22;11664;49.774;8.650;2022-09-27T23:53:57;9.50;99.90
22996;DHT22;11664;49.774;8.650;2022-09-27T23:56:23;9.50;99.90
22996;DHT22;11664;49.774;8.650;2022-09-27T23:58:48;9.50;99.90
